Time;durP1;ratioP1;P1;durP2;ratioP2;P2;SDS_P1;SDS_P2;PMS_P1;PMS_P2;Temp;Humidity;BMP_temperature;BMP_pressure;BME280_temperature;BME280_humidity;BME280_pressure;Samples;Min_cycle;Max_cycle;Signal;HPM_P1;HPM_P2
2022/11/14 00:00:41;;;;;;;;;;;7.70;99.90;;;;;;5135996;27;20050;-72
2022/11/14 00:03:08;;;;;;;27.20;14.48;;;8.30;99.90;;;;;;5117200;27;20267;-71
2022/11/14 00:05:42;;;;;;;24.75;14.25;;;7.80;99.90;;;;;;5135352;27;20043;-71
2022/11/14 00:08:20;;;;;;;23.08;13.18;;;7.80;99.90;;;;;;5144135;27;20039;-71
2022/11/14 00:10:47;;;;;;;23.20;14.07;;;8.00;99.90;;;;;;5156059;27;20091;-72
2022/11/14 00:13:14;;;;;;;25.08;14.27;;;8.20;99.90;;;;;;5137732;27;20057;-71
2022/11/14 00:15:40;;;;;;;23.42;13.38;;;7.90;99.90;;;;;;5137045;27;20412;-71
2022/11/14 00:18:05;;;;;;;25.33;14.55;;;8.10;99.90;;;;;;5155893;27;20048;-71
2022/11/14 00:20:32;;;;;;;28.02;15.82;;;9.00;99.90;;;;;;5137445;27;20378;-71
2022/11/14 00:22:57;;;;;;;27.33;14.57;;;8.40;99.90;;;;;;5120369;27;20057;-71
2022/11/14 00:25:23;;;;;;;24.77;14.35;;;8.20;99.90;;;;;;5155767;27;20118;-71
2022/11/14 00:27:49;;;;;;;28.88;16.05;;;7.90;99.90;;;;;;5102962;27;20504;-71
2022/11/14 00:30:14;;;;;;;25.38;16.20;;;7.80;99.90;;;;;;5137209;27;20034;-71
2022/11/14 00:32:40;;;;;;;32.28;17.90;;;8.00;99.90;;;;;;5155731;27;20051;-71
2022/11/14 00:35:08;;;;;;;28.95;16.50;;;8.10;99.90;;;;;;5137140;27;20051;-71
2022/11/14 00:37:34;;;;;;;31.98;18.08;;;7.80;99.90;;;;;;5156046;27;20134;-71
2022/11/14 00:40:00;;;;;;;33.47;18.48;;;7.90;99.90;;;;;;5137188;27;20057;-71
2022/11/14 00:42:25;;;;;;;33.38;19.08;;;8.10;99.90;;;;;;5137227;27;20034;-70
2022/11/14 00:44:51;;;;;;;34.13;19.17;;;8.20;99.90;;;;;;5155165;27;20072;-71
2022/11/14 00:47:17;;;;;;;37.20;21.17;;;7.90;99.90;;;;;;5155642;27;20039;-71
2022/11/14 00:49:42;;;;;;;35.85;19.58;;;8.80;99.90;;;;;;5155394;27;20054;-70
2022/11/14 00:52:08;;;;;;;35.38;19.88;;;8.80;99.90;;;;;;5155392;27;20099;-71
2022/11/14 00:54:33;;;;;;;34.83;20.75;;;8.00;99.90;;;;;;5136920;27;20111;-71
2022/11/14 00:56:59;;;;;;;35.47;20.58;;;8.10;99.90;;;;;;5155269;27;20089;-71
2022/11/14 00:59:25;;;;;;;37.90;21.45;;;7.70;99.90;;;;;;5155291;27;20039;-71
2022/11/14 01:01:50;;;;;;;36.83;22.20;;;8.30;99.90;;;;;;5155228;27;20525;-71
2022/11/14 01:04:16;;;;;;;38.33;22.13;;;8.10;99.90;;;;;;5119666;27;20062;-71
2022/11/14 01:06:42;;;;;;;34.72;19.90;;;8.00;99.90;;;;;;5155206;27;20035;-71
2022/11/14 01:09:07;;;;;;;37.08;21.25;;;7.90;99.90;;;;;;5136720;27;20038;-71
2022/11/14 01:11:33;;;;;;;36.83;21.20;;;7.70;99.90;;;;;;5155166;27;20038;-71
2022/11/14 01:13:59;;;;;;;35.03;20.73;;;7.90;99.90;;;;;;5157103;27;20402;-71
2022/11/14 01:16:24;;;;;;;39.10;21.38;;;8.00;99.90;;;;;;5159328;27;20046;-70
2022/11/14 01:18:50;;;;;;;38.28;22.40;;;8.00;99.90;;;;;;5159655;27;20133;-71
2022/11/14 01:21:16;;;;;;;34.38;20.25;;;7.90;99.90;;;;;;5159010;27;20086;-71
2022/11/14 01:23:42;;;;;;;35.67;20.98;;;7.70;99.90;;;;;;5140792;27;20089;-72
2022/11/14 01:26:10;;;;;;;34.03;20.13;;;7.00;99.90;;;;;;5141002;27;20046;-71
2022/11/14 01:28:38;;;;;;;35.33;19.83;;;8.00;99.90;;;;;;5159197;27;20068;-71
2022/11/14 01:31:14;;;;;;;33.83;20.25;;;7.60;99.90;;;;;;5140848;27;20130;-71
2022/11/14 01:33:41;;;;;;;36.78;21.15;;;8.30;99.90;;;;;;5158471;27;20516;-71
2022/11/14 01:36:08;;;;;;;37.22;20.60;;;7.40;99.90;;;;;;5140525;27;20501;-71
2022/11/14 01:38:34;;;;;;;37.53;20.23;;;7.70;99.90;;;;;;5140723;27;20047;-71
2022/11/14 01:41:00;;;;;;;38.05;20.83;;;8.30;99.90;;;;;;5158955;27;20505;-71
2022/11/14 01:43:32;;;;;;;35.25;19.83;;;7.90;99.90;;;;;;5158857;27;20082;-71
2022/11/14 01:46:11;;;;;;;35.55;20.30;;;8.40;99.90;;;;;;5158345;27;20045;-71
2022/11/14 01:48:57;;;;;;;36.60;20.52;;;7.70;99.90;;;;;;5158811;27;20096;-71
2022/11/14 01:51:39;;;;;;;37.88;20.38;;;7.70;99.90;;;;;;5158651;27;20201;-71
2022/11/14 01:54:10;;;;;;;34.72;20.05;;;7.70;99.90;;;;;;5158878;27;20370;-71
2022/11/14 01:56:39;;;;;;;35.40;19.38;;;7.80;99.90;;;;;;5158678;27;20122;-71
2022/11/14 01:59:08;;;;;;;35.35;20.65;;;8.20;99.90;;;;;;5140034;27;20047;-71
2022/11/14 02:01:44;;;;;;;32.55;19.23;;;8.00;99.90;;;;;;5158493;27;20082;-71
2022/11/14 02:04:12;;;;;;;36.10;21.00;;;8.10;99.90;;;;;;5158693;27;20130;-71
2022/11/14 02:06:39;;;;;;;34.83;19.95;;;7.90;99.90;;;;;;5158522;27;20058;-71
2022/11/14 02:09:06;;;;;;;34.45;19.67;;;8.40;99.90;;;;;;5123072;27;20054;-71
2022/11/14 02:11:39;;;;;;;34.90;19.10;;;8.20;99.90;;;;;;5158296;27;20134;-71
2022/11/14 02:14:06;;;;;;;35.55;20.15;;;8.30;99.90;;;;;;5157861;27;20039;-72
2022/11/14 02:16:32;;;;;;;31.45;19.38;;;8.00;99.90;;;;;;5158189;27;20085;-71
2022/11/14 02:18:57;;;;;;;30.90;18.55;;;8.00;99.90;;;;;;5139972;27;20070;-71
2022/11/14 02:21:23;;;;;;;36.05;21.10;;;7.90;99.90;;;;;;5158462;27;20571;-71
2022/11/14 02:23:48;;;;;;;35.67;19.52;;;7.90;99.90;;;;;;5157789;27;20474;-71
2022/11/14 02:26:19;;;;;;;35.25;19.75;;;8.00;99.90;;;;;;5157997;27;20094;-71
2022/11/14 02:28:45;;;;;;;33.15;18.50;;;8.00;99.90;;;;;;5158026;27;20043;-72
2022/11/14 02:31:10;;;;;;;33.78;19.40;;;8.10;99.90;;;;;;5158014;27;20213;-71
2022/11/14 02:33:36;;;;;;;36.03;19.75;;;8.00;99.90;;;;;;5157580;27;20043;-71
2022/11/14 02:36:02;;;;;;;34.08;18.95;;;8.10;99.90;;;;;;5156679;27;20375;-71
2022/11/14 02:38:27;;;;;;;32.88;19.38;;;7.70;99.90;;;;;;5121300;27;20103;-71
2022/11/14 02:40:53;;;;;;;31.55;18.77;;;8.40;99.90;;;;;;5156665;27;20377;-71
2022/11/14 02:43:19;;;;;;;31.38;19.67;;;7.70;99.90;;;;;;5138230;27;20043;-71
2022/11/14 02:45:45;;;;;;;32.25;17.65;;;7.80;99.90;;;;;;5137819;27;20105;-71
2022/11/14 02:48:11;;;;;;;33.05;18.33;;;9.00;99.90;;;;;;5156502;27;20039;-71
2022/11/14 02:50:37;;;;;;;33.88;19.73;;;7.80;99.90;;;;;;5156568;27;20099;-71
2022/11/14 02:53:02;;;;;;;33.97;19.45;;;8.50;99.90;;;;;;5156171;27;20138;-71
2022/11/14 02:55:28;;;;;;;32.33;19.25;;;7.80;99.90;;;;;;5156283;27;20049;-71
2022/11/14 02:57:54;;;;;;;34.03;19.05;;;8.30;99.90;;;;;;5156384;27;20497;-71
2022/11/14 03:00:19;;;;;;;34.00;19.35;;;8.30;99.90;;;;;;5156322;27;20397;-71
2022/11/14 03:02:45;;;;;;;29.70;18.17;;;7.80;99.90;;;;;;5137991;27;20493;-71
2022/11/14 03:05:11;;;;;;;32.75;17.55;;;8.50;99.90;;;;;;5156500;27;20126;-71
2022/11/14 03:07:37;;;;;;;32.15;18.63;;;8.00;99.90;;;;;;5156564;27;20045;-71
2022/11/14 03:10:03;;;;;;;36.45;19.80;;;7.80;99.90;;;;;;5156154;27;20043;-71
2022/11/14 03:12:29;;;;;;;33.50;19.77;;;7.70;99.90;;;;;;5156124;27;20130;-71
2022/11/14 03:14:55;;;;;;;32.97;19.25;;;7.80;99.90;;;;;;5137099;27;20082;-71
2022/11/14 03:17:23;;;;;;;34.67;19.95;;;7.70;99.90;;;;;;5155979;27;20076;-71
2022/11/14 03:19:49;;;;;;;32.80;19.35;;;8.30;99.90;;;;;;5137561;27;20047;-71
2022/11/14 03:22:15;;;;;;;34.95;19.42;;;8.00;99.90;;;;;;5137686;27;20047;-71
2022/11/14 03:24:40;;;;;;;33.22;19.25;;;8.10;99.90;;;;;;5137648;27;20039;-71
2022/11/14 03:27:06;;;;;;;35.03;20.73;;;8.10;99.90;;;;;;5155917;27;20046;-70
2022/11/14 03:29:32;;;;;;;35.83;19.58;;;8.10;99.90;;;;;;5155814;27;20047;-70
2022/11/14 03:31:57;;;;;;;33.42;19.17;;;7.80;99.90;;;;;;5155729;27;20134;-71
2022/11/14 03:34:23;;;;;;;38.20;20.45;;;8.10;99.90;;;;;;5097799;27;1109816;-70
2022/11/14 03:36:49;;;;;;;35.13;19.50;;;8.70;99.90;;;;;;5155791;27;20043;-70
2022/11/14 03:39:15;;;;;;;33.72;19.52;;;8.10;99.90;;;;;;5156647;27;20054;-71
2022/11/14 03:41:40;;;;;;;34.20;19.45;;;8.60;99.90;;;;;;5156557;27;20420;-70
2022/11/14 03:44:06;;;;;;;33.03;20.17;;;8.50;99.90;;;;;;5156228;27;20095;-71
2022/11/14 03:46:32;;;;;;;32.80;20.08;;;7.80;99.90;;;;;;5155909;27;20045;-70
2022/11/14 03:48:57;;;;;;;32.05;20.10;;;7.90;99.90;;;;;;5138184;27;20039;-70
2022/11/14 03:51:23;;;;;;;34.83;20.08;;;7.80;99.90;;;;;;5138133;27;20066;-71
2022/11/14 03:53:49;;;;;;;33.40;19.73;;;7.90;99.90;;;;;;5156318;27;20046;-71
2022/11/14 03:56:14;;;;;;;33.95;20.58;;;8.20;99.90;;;;;;5137772;27;20039;-71
2022/11/14 03:58:40;;;;;;;36.90;21.75;;;8.30;99.90;;;;;;5156273;27;20051;-70
2022/11/14 04:01:06;;;;;;;37.38;24.05;;;8.20;99.90;;;;;;5156154;27;20043;-70
2022/11/14 04:03:31;;;;;;;38.33;23.15;;;7.70;99.90;;;;;;5137737;27;20500;-70
2022/11/14 04:05:57;;;;;;;38.08;23.13;;;8.10;99.90;;;;;;5156030;27;20069;-70
2022/11/14 04:08:23;;;;;;;37.55;22.55;;;8.00;99.90;;;;;;5138213;27;20125;-71
2022/11/14 04:10:49;;;;;;;40.38;22.98;;;8.50;99.90;;;;;;5156340;27;20050;-70
2022/11/14 04:13:15;;;;;;;38.50;22.73;;;7.90;99.90;;;;;;5155926;27;20046;-70
2022/11/14 04:15:40;;;;;;;41.30;22.88;;;7.70;99.90;;;;;;5155312;27;20043;-71
2022/11/14 04:18:06;;;;;;;39.20;23.23;;;7.90;99.90;;;;;;5137632;27;20463;-70
2022/11/14 04:20:32;;;;;;;39.45;23.05;;;8.00;99.90;;;;;;5155817;27;20141;-70
2022/11/14 04:22:57;;;;;;;33.97;21.25;;;8.10;99.90;;;;;;5155772;27;20046;-70
2022/11/14 04:25:23;;;;;;;33.50;20.77;;;8.20;99.90;;;;;;5156158;27;20043;-70
2022/11/14 04:27:49;;;;;;;34.58;20.85;;;8.10;99.90;;;;;;5137440;27;20126;-70
2022/11/14 04:30:14;;;;;;;34.05;20.98;;;8.00;99.90;;;;;;5155652;27;20095;-70
2022/11/14 04:32:40;;;;;;;35.70;21.13;;;7.60;99.90;;;;;;5155619;27;20466;-70
2022/11/14 04:35:06;;;;;;;34.90;19.52;;;7.90;99.90;;;;;;5136900;27;20054;-69
2022/11/14 04:37:32;;;;;;;33.25;20.70;;;7.70;99.90;;;;;;5155469;27;20093;-70
2022/11/14 04:39:59;;;;;;;35.63;20.60;;;8.00;99.90;;;;;;5155266;27;20134;-70
2022/11/14 04:42:25;;;;;;;34.97;18.83;;;7.80;99.90;;;;;;5120895;27;20378;-70
2022/11/14 04:44:51;;;;;;;33.13;19.70;;;7.90;99.90;;;;;;5154897;27;20045;-71
2022/11/14 04:47:17;;;;;;;34.10;19.50;;;7.60;99.90;;;;;;5155752;27;20126;-70
2022/11/14 04:49:43;;;;;;;35.58;19.73;;;7.90;99.90;;;;;;5136796;27;20039;-71
2022/11/14 04:52:08;;;;;;;32.58;19.40;;;7.70;99.90;;;;;;5155346;27;20038;-71
2022/11/14 04:54:34;;;;;;;35.65;19.60;;;7.70;99.90;;;;;;5155349;27;20043;-70
2022/11/14 04:57:00;;;;;;;33.75;19.40;;;7.70;99.90;;;;;;5120305;27;20046;-70
2022/11/14 04:59:25;;;;;;;34.38;20.33;;;8.20;99.90;;;;;;5155300;27;20090;-70
2022/11/14 05:01:51;;;;;;;31.80;19.35;;;7.60;99.90;;;;;;5154856;27;20039;-71
2022/11/14 05:04:16;;;;;;;32.88;18.92;;;7.70;99.90;;;;;;5155255;27;20087;-70
2022/11/14 05:06:42;;;;;;;36.10;20.15;;;7.80;99.90;;;;;;5155529;27;20045;-70
2022/11/14 05:09:08;;;;;;;34.78;19.50;;;7.70;99.90;;;;;;5155240;27;20047;-70
2022/11/14 05:11:34;;;;;;;33.17;19.48;;;7.80;99.90;;;;;;5155292;27;20047;-70
2022/11/14 05:14:00;;;;;;;32.47;18.48;;;7.50;99.90;;;;;;5102621;27;20042;-70
2022/11/14 05:16:25;;;;;;;31.70;19.13;;;7.90;99.90;;;;;;5154509;27;20355;-70
2022/11/14 05:18:53;;;;;;;30.77;18.35;;;7.50;99.90;;;;;;5136872;27;20043;-70
2022/11/14 05:21:19;;;;;;;31.10;18.17;;;7.70;99.90;;;;;;5155132;27;20371;-70
2022/11/14 05:23:45;;;;;;;31.45;18.55;;;7.80;99.90;;;;;;5137332;27;20053;-70
2022/11/14 05:26:13;;;;;;;34.30;20.35;;;8.30;99.90;;;;;;5155023;27;20098;-70
2022/11/14 05:28:40;;;;;;;31.75;18.77;;;8.00;99.90;;;;;;5155024;27;20134;-70
2022/11/14 05:31:12;;;;;;;31.48;19.80;;;7.80;99.90;;;;;;5155028;27;20127;-70
2022/11/14 05:33:38;;;;;;;34.72;19.08;;;7.60;99.90;;;;;;5155027;27;20102;-70
2022/11/14 05:36:05;;;;;;;32.47;20.15;;;8.00;99.90;;;;;;5155045;27;20079;-70
2022/11/14 05:38:30;;;;;;;30.48;18.20;;;7.30;99.90;;;;;;5154916;27;20047;-70
2022/11/14 05:40:56;;;;;;;34.35;19.38;;;8.20;99.90;;;;;;5155144;27;20052;-70
2022/11/14 05:43:22;;;;;;;36.38;20.90;;;7.30;99.90;;;;;;5136697;27;20047;-70
2022/11/14 05:45:48;;;;;;;34.95;20.02;;;7.30;99.90;;;;;;5135807;27;20043;-70
2022/11/14 05:48:14;;;;;;;34.67;19.45;;;7.70;99.90;;;;;;5154762;27;20049;-70
2022/11/14 05:50:39;;;;;;;32.90;18.60;;;7.50;99.90;;;;;;5154828;27;20389;-70
2022/11/14 05:53:05;;;;;;;32.55;19.25;;;8.00;99.90;;;;;;5154800;27;20047;-70
2022/11/14 05:55:31;;;;;;;31.75;18.27;;;7.60;99.90;;;;;;5154776;27;20049;-70
2022/11/14 05:58:00;;;;;;;34.53;19.17;;;7.30;99.90;;;;;;5155103;27;20439;-70
2022/11/14 06:00:26;;;;;;;38.45;20.20;;;7.70;99.90;;;;;;5157653;27;20451;-70
2022/11/14 06:02:55;;;;;;;37.65;19.52;;;7.50;99.90;;;;;;5140327;27;20051;-69
2022/11/14 06:05:21;;;;;;;39.05;21.13;;;7.90;99.90;;;;;;5158835;27;20065;-70
2022/11/14 06:07:53;;;;;;;36.47;19.95;;;7.30;99.90;;;;;;5140382;27;20093;-70
2022/11/14 06:10:19;;;;;;;35.35;19.23;;;7.70;99.90;;;;;;5158482;27;20121;-70
2022/11/14 06:12:44;;;;;;;38.30;20.83;;;7.20;99.90;;;;;;5158391;27;20089;-70
2022/11/14 06:15:10;;;;;;;37.95;21.42;;;7.40;99.90;;;;;;5157683;27;20039;-70
2022/11/14 06:17:36;;;;;;;35.08;20.52;;;7.10;99.90;;;;;;5122484;27;20053;-70
2022/11/14 06:20:01;;;;;;;39.25;21.40;;;7.60;99.90;;;;;;5158174;27;20375;-70
2022/11/14 06:22:27;;;;;;;36.15;21.67;;;7.10;99.90;;;;;;5158513;27;20106;-70
2022/11/14 06:24:53;;;;;;;37.47;20.77;;;7.40;99.90;;;;;;5105765;27;20049;-69
2022/11/14 06:27:18;;;;;;;38.53;20.90;;;7.40;99.90;;;;;;5158036;27;20492;-70
2022/11/14 06:29:44;;;;;;;40.25;21.88;;;7.70;99.90;;;;;;5158071;27;20042;-70
2022/11/14 06:32:10;;;;;;;40.05;22.33;;;8.00;99.90;;;;;;5158499;27;20051;-70
2022/11/14 06:34:35;;;;;;;39.08;21.65;;;7.40;99.90;;;;;;5139414;27;20055;-70
2022/11/14 06:37:01;;;;;;;38.58;21.85;;;7.60;99.90;;;;;;5157804;27;20047;-70
2022/11/14 06:39:27;;;;;;;37.35;21.73;;;7.60;99.90;;;;;;5157823;27;20047;-70
2022/11/14 06:41:52;;;;;;;42.28;23.35;;;7.70;99.90;;;;;;5122947;27;20046;-70
2022/11/14 06:44:18;;;;;;;43.75;22.23;;;7.40;99.90;;;;;;5158224;27;20054;-70
2022/11/14 06:46:43;;;;;;;38.45;22.65;;;7.80;99.90;;;;;;5138698;27;20095;-70
2022/11/14 06:49:09;;;;;;;41.35;21.42;;;7.40;99.90;;;;;;5139169;27;20050;-70
2022/11/14 06:51:35;;;;;;;40.83;22.50;;;7.70;99.90;;;;;;5158176;27;20059;-71
2022/11/14 06:54:01;;;;;;;39.78;21.67;;;7.20;99.90;;;;;;5158116;27;20047;-70
2022/11/14 06:56:26;;;;;;;40.17;21.52;;;7.20;99.90;;;;;;5157545;27;20415;-70
2022/11/14 06:58:52;;;;;;;38.58;21.83;;;7.50;99.90;;;;;;5139300;27;20050;-70
2022/11/14 07:01:24;;;;;;;38.20;21.50;;;7.90;99.90;;;;;;5157419;27;20135;-70
2022/11/14 07:03:51;;;;;;;41.50;23.27;;;7.50;99.90;;;;;;5139094;27;20187;-70
2022/11/14 07:06:20;;;;;;;37.70;22.02;;;7.50;99.90;;;;;;5157490;27;20356;-70
2022/11/14 07:08:45;;;;;;;38.30;20.83;;;7.50;99.90;;;;;;5157271;27;20043;-70
2022/11/14 07:11:24;;;;;;;38.03;22.23;;;7.70;99.90;;;;;;5156077;27;20039;-70
2022/11/14 07:14:00;;;;;;;37.40;20.95;;;7.50;99.90;;;;;;5157214;27;20130;-70
2022/11/14 07:16:28;;;;;;;36.15;20.73;;;7.10;99.90;;;;;;5156559;27;20121;-70
2022/11/14 07:18:55;;;;;;;36.83;21.33;;;7.10;99.90;;;;;;5157089;27;20390;-70
2022/11/14 07:21:21;;;;;;;38.50;22.27;;;7.00;99.90;;;;;;5157023;27;20046;-70
2022/11/14 07:23:47;;;;;;;37.40;21.30;;;7.40;99.90;;;;;;5156940;27;20039;-70
2022/11/14 07:26:12;;;;;;;37.80;21.75;;;7.10;99.90;;;;;;5138416;27;20041;-70
2022/11/14 07:28:40;;;;;;;37.45;21.65;;;7.40;99.90;;;;;;5138418;27;20046;-70
2022/11/14 07:31:11;;;;;;;35.88;20.60;;;7.20;99.90;;;;;;5156513;27;20482;-70
2022/11/14 07:33:37;;;;;;;40.20;21.48;;;7.80;99.90;;;;;;5156812;27;20095;-70
2022/11/14 07:36:04;;;;;;;39.10;21.33;;;7.00;99.90;;;;;;5137849;27;20047;-70
2022/11/14 07:38:31;;;;;;;36.53;21.73;;;7.10;99.90;;;;;;5156656;27;20050;-69
2022/11/14 07:40:58;;;;;;;41.30;22.85;;;7.40;99.90;;;;;;5138107;27;20046;-69
2022/11/14 07:43:24;;;;;;;39.92;22.63;;;7.60;99.90;;;;;;5156765;27;20080;-70
2022/11/14 07:45:50;;;;;;;38.92;22.90;;;7.20;99.90;;;;;;5156063;27;20402;-70
2022/11/14 07:48:17;;;;;;;41.33;22.70;;;7.60;99.90;;;;;;5156077;27;20060;-69
2022/11/14 07:50:43;;;;;;;39.85;22.33;;;7.20;99.90;;;;;;5156393;27;20496;-69
2022/11/14 07:53:09;;;;;;;40.17;23.40;;;7.20;99.90;;;;;;5156402;27;20058;-70
2022/11/14 07:55:35;;;;;;;40.05;23.10;;;7.20;99.90;;;;;;5156353;27;20402;-70
2022/11/14 07:58:01;;;;;;;41.63;24.42;;;7.40;99.90;;;;;;5156240;27;20035;-70
2022/11/14 08:00:27;;;;;;;39.70;23.17;;;7.10;99.90;;;;;;5156249;27;20187;-70
2022/11/14 08:02:53;;;;;;;39.33;23.55;;;7.10;99.90;;;;;;5156399;27;20083;-70
2022/11/14 08:05:19;;;;;;;39.92;20.45;;;7.50;99.90;;;;;;5155852;27;20038;-70
2022/11/14 08:07:45;;;;;;;38.40;21.42;;;7.20;99.90;;;;;;5156599;27;20042;-69
2022/11/14 08:10:12;;;;;;;38.90;22.05;;;7.50;99.90;;;;;;5155695;27;20038;-70
2022/11/14 08:12:39;;;;;;;40.58;22.00;;;7.40;99.90;;;;;;5137877;27;20046;-70
2022/11/14 08:15:07;;;;;;;33.08;20.60;;;7.50;99.90;;;;;;5137121;27;20057;-70
2022/11/14 08:17:33;;;;;;;36.90;21.05;;;7.20;99.90;;;;;;5155854;27;20051;-69
2022/11/14 08:19:59;;;;;;;38.97;22.45;;;7.20;99.90;;;;;;5156431;27;20347;-70
2022/11/14 08:22:25;;;;;;;36.35;21.20;;;7.30;99.90;;;;;;5155572;27;20111;-71
2022/11/14 08:24:50;;;;;;;34.47;21.10;;;7.50;99.90;;;;;;5155854;27;20043;-70
2022/11/14 08:27:16;;;;;;;41.20;22.25;;;7.40;99.90;;;;;;5156448;27;20130;-70
2022/11/14 08:29:42;;;;;;;37.22;22.08;;;7.20;99.90;;;;;;5137796;27;20045;-70
2022/11/14 08:32:08;;;;;;;37.22;21.63;;;7.20;99.90;;;;;;5155749;27;20038;-71
2022/11/14 08:34:35;;;;;;;37.67;22.05;;;7.50;99.90;;;;;;5137407;27;20077;-70
2022/11/14 08:37:01;;;;;;;39.08;21.63;;;7.20;99.90;;;;;;5137445;27;20100;-69
2022/11/14 08:39:27;;;;;;;42.03;22.83;;;7.80;99.90;;;;;;5137354;27;20074;-70
2022/11/14 08:41:53;;;;;;;39.17;21.52;;;7.30;99.90;;;;;;5155701;27;20049;-69
2022/11/14 08:44:19;;;;;;;36.78;21.73;;;8.00;99.90;;;;;;5155339;27;20043;-70
2022/11/14 08:46:44;;;;;;;36.45;21.70;;;7.60;99.90;;;;;;5155311;27;20043;-70
2022/11/14 08:49:10;;;;;;;34.80;20.33;;;7.70;99.90;;;;;;5155584;27;20139;-69
2022/11/14 08:51:36;;;;;;;34.03;19.63;;;7.50;99.90;;;;;;5156098;27;20043;-70
2022/11/14 08:54:01;;;;;;;34.20;20.58;;;8.10;99.90;;;;;;5155578;27;20049;-69
2022/11/14 08:56:27;;;;;;;35.15;21.00;;;7.30;99.90;;;;;;5155408;27;20043;-69
2022/11/14 08:58:53;;;;;;;33.13;20.50;;;7.30;99.90;;;;;;5137055;27;20046;-70
2022/11/14 09:01:18;;;;;;;35.30;20.83;;;7.90;99.90;;;;;;5155416;27;20048;-69
2022/11/14 09:03:44;;;;;;;35.00;19.65;;;8.20;99.90;;;;;;5137231;27;20039;-69
2022/11/14 09:06:10;;;;;;;33.28;20.45;;;7.20;99.90;;;;;;5155330;27;20087;-69
2022/11/14 09:08:35;;;;;;;34.67;20.48;;;7.70;99.90;;;;;;5155371;27;20043;-68
2022/11/14 09:11:02;;;;;;;35.40;20.58;;;7.30;99.90;;;;;;5137176;27;20561;-69
2022/11/14 09:13:30;;;;;;;36.15;20.25;;;7.30;99.90;;;;;;5155149;27;20103;-71
2022/11/14 09:15:56;;;;;;;37.00;21.98;;;7.30;99.90;;;;;;5125065;27;20425;-72
2022/11/14 09:18:22;;;;;;;35.03;22.08;;;7.70;99.90;;;;;;5108083;27;20069;-71
2022/11/14 09:20:47;;;;;;;37.72;21.38;;;7.90;99.90;;;;;;5126976;27;20043;-71
2022/11/14 09:23:13;;;;;;;38.17;21.60;;;7.60;99.90;;;;;;5108964;27;20126;-71
2022/11/14 09:25:39;;;;;;;39.15;21.95;;;7.40;99.90;;;;;;5108178;27;20073;-71
2022/11/14 09:28:08;;;;;;;34.45;21.38;;;7.90;99.90;;;;;;5145423;27;20142;-72
2022/11/14 09:30:35;;;;;;;37.50;22.02;;;7.70;99.90;;;;;;5144524;27;20107;-72
2022/11/14 09:33:02;;;;;;;36.63;21.25;;;7.50;99.90;;;;;;5143293;27;20074;-72
2022/11/14 09:35:30;;;;;;;35.13;21.27;;;7.70;99.90;;;;;;5146185;27;20106;-69
2022/11/14 09:38:03;;;;;;;34.75;20.42;;;8.10;99.90;;;;;;5148497;27;20082;-70
2022/11/14 09:40:34;;;;;;;36.42;21.17;;;7.70;99.90;;;;;;5130644;27;20094;-70
2022/11/14 09:43:08;;;;;;;36.97;20.95;;;7.70;99.90;;;;;;5149226;27;20039;-70
2022/11/14 09:45:39;;;;;;;35.45;19.88;;;7.60;99.90;;;;;;5130135;27;20050;-70
2022/11/14 09:48:10;;;;;;;39.05;22.10;;;7.60;99.90;;;;;;5113543;27;20121;-70
2022/11/14 09:50:41;;;;;;;35.50;20.27;;;7.80;99.90;;;;;;5150632;27;20043;-70
2022/11/14 09:53:40;;;;;;;33.60;20.13;;;7.70;99.90;;;;;;5150073;27;20084;-69
2022/11/14 09:56:16;;;;;;;33.60;19.48;;;7.70;99.90;;;;;;5079277;27;20496;-70
2022/11/14 09:58:42;;;;;;;33.63;20.08;;;7.70;99.90;;;;;;5128550;27;20051;-70
2022/11/14 10:01:26;;;;;;;35.63;20.52;;;7.80;99.90;;;;;;5130480;27;20394;-70
2022/11/14 10:03:58;;;;;;;34.20;19.83;;;8.50;99.90;;;;;;5147789;27;20054;-70
2022/11/14 10:06:27;;;;;;;38.72;21.25;;;7.80;99.90;;;;;;5148837;27;20050;-69
2022/11/14 10:09:02;;;;;;;34.83;20.33;;;7.70;99.90;;;;;;5129483;27;20043;-70
2022/11/14 10:11:30;;;;;;;41.63;25.05;;;7.70;99.90;;;;;;5148716;27;20398;-70
2022/11/14 10:14:08;;;;;;;38.60;21.65;;;7.90;99.90;;;;;;5145575;27;20501;-70
2022/11/14 10:16:36;;;;;;;32.65;19.30;;;7.70;99.90;;;;;;5128722;27;20114;-70
2022/11/14 10:19:26;;;;;;;34.22;20.40;;;7.80;99.90;;;;;;5148880;27;20038;-70
2022/11/14 10:22:25;;;;;;;32.58;20.20;;;7.60;99.90;;;;;;5129230;27;20043;-70
2022/11/14 10:25:13;;;;;;;33.17;19.75;;;7.80;99.90;;;;;;5147223;27;20122;-70
2022/11/14 10:27:48;;;;;;;33.78;19.52;;;7.80;99.90;;;;;;5148019;27;20039;-70
2022/11/14 10:30:17;;;;;;;30.17;17.98;;;8.10;99.90;;;;;;5146828;27;20054;-70
2022/11/14 10:33:08;;;;;;;32.65;18.77;;;7.90;99.90;;;;;;5148345;27;20039;-69
2022/11/14 10:35:53;;;;;;;28.38;17.35;;;8.30;99.90;;;;;;5146169;27;20043;-70
2022/11/14 10:38:27;;;;;;;32.25;18.70;;;7.90;99.90;;;;;;5147389;27;20467;-69
2022/11/14 10:40:57;;;;;;;32.92;20.35;;;8.20;99.90;;;;;;5144157;27;20066;-70
2022/11/14 10:43:38;;;;;;;31.80;18.75;;;8.00;99.90;;;;;;5128853;27;20050;-70
2022/11/14 10:46:28;;;;;;;31.30;19.15;;;8.00;99.90;;;;;;5111313;27;20042;-70
2022/11/14 10:48:54;;;;;;;31.70;18.45;;;8.40;99.90;;;;;;5128474;27;20428;-70
2022/11/14 10:51:41;;;;;;;33.60;19.60;;;8.10;99.90;;;;;;5129020;27;20047;-70
2022/11/14 10:54:26;;;;;;;30.48;19.02;;;8.00;99.90;;;;;;5147472;27;20718;-70
2022/11/14 10:56:54;;;;;;;30.23;18.98;;;7.90;99.90;;;;;;5113215;27;20046;-69
2022/11/14 10:59:20;;;;;;;32.45;18.70;;;8.00;99.90;;;;;;5145366;27;20478;-70
2022/11/14 11:01:49;;;;;;;31.35;18.45;;;7.90;99.90;;;;;;5129670;27;20042;-69
2022/11/14 11:04:33;;;;;;;33.70;19.77;;;8.10;99.90;;;;;;5126858;27;20116;-70
2022/11/14 11:07:08;;;;;;;32.10;18.88;;;8.10;99.90;;;;;;5146690;27;20042;-71
2022/11/14 11:12:47;;;;;;;32.28;19.25;;;8.40;99.90;;;;;;5147133;27;20070;-70
2022/11/14 11:15:19;;;;;;;31.40;19.55;;;8.10;99.90;;;;;;5110772;27;20047;-70
2022/11/14 11:18:00;;;;;;;31.42;19.27;;;8.10;99.90;;;;;;5147319;27;20035;-70
2022/11/14 11:20:38;;;;;;;31.15;17.48;;;8.40;99.90;;;;;;5145814;27;20084;-70
2022/11/14 11:23:06;;;;;;;29.33;18.30;;;8.20;99.90;;;;;;5145728;27;20093;-70
2022/11/14 11:25:33;;;;;;;30.27;18.67;;;8.60;99.90;;;;;;5129045;27;20054;-70
2022/11/14 11:28:16;;;;;;;29.40;18.00;;;8.30;99.90;;;;;;5145698;27;20547;-70
2022/11/14 11:31:09;;;;;;;32.10;18.27;;;8.50;99.90;;;;;;5146645;27;20035;-69
2022/11/14 11:33:37;;;;;;;32.05;19.58;;;8.60;99.90;;;;;;5141315;27;20046;-70
2022/11/14 11:36:12;;;;;;;28.98;18.35;;;9.20;99.90;;;;;;5146746;27;20107;-70
2022/11/14 11:38:38;;;;;;;31.60;19.08;;;8.40;99.90;;;;;;5144226;27;20081;-70
2022/11/14 11:41:29;;;;;;;29.30;17.83;;;8.90;99.90;;;;;;5128362;27;20121;-70
2022/11/14 11:44:02;;;;;;;29.92;19.05;;;8.40;99.90;;;;;;5146369;27;20046;-70
2022/11/14 11:46:34;;;;;;;31.10;18.58;;;8.50;99.90;;;;;;5109968;27;20047;-70
2022/11/14 11:49:11;;;;;;;29.75;18.63;;;8.50;99.90;;;;;;5144041;27;20054;-70
2022/11/14 11:51:41;;;;;;;28.98;17.52;;;8.50;99.90;;;;;;5146208;27;20074;-70
2022/11/14 11:54:15;;;;;;;29.27;17.65;;;8.90;99.90;;;;;;5145325;27;20122;-70
2022/11/14 11:56:43;;;;;;;29.17;16.95;;;8.60;99.90;;;;;;5126720;27;20069;-70
2022/11/14 11:59:28;;;;;;;27.92;17.25;;;8.90;99.90;;;;;;5145228;27;20043;-70
2022/11/14 12:01:54;;;;;;;31.90;18.27;;;8.60;99.90;;;;;;5146289;27;20066;-70
2022/11/14 12:04:20;;;;;;;29.08;17.42;;;8.70;99.90;;;;;;5145702;27;20039;-70
2022/11/14 12:07:07;;;;;;;29.38;17.52;;;9.00;99.90;;;;;;5145845;27;20083;-69
2022/11/14 12:09:38;;;;;;;26.98;17.15;;;9.00;99.90;;;;;;5112061;27;20057;-69
2022/11/14 12:12:37;;;;;;;28.38;16.55;;;8.80;99.90;;;;;;5145512;27;20068;-70
2022/11/14 12:15:23;;;;;;;29.00;18.40;;;8.80;99.90;;;;;;5125889;27;20043;-70
2022/11/14 12:18:10;;;;;;;30.67;17.63;;;8.70;99.90;;;;;;5126907;27;20095;-70
2022/11/14 12:21:00;;;;;;;27.10;16.45;;;8.80;99.90;;;;;;5146229;27;20042;-71
2022/11/14 12:23:31;;;;;;;29.65;17.25;;;8.90;99.90;;;;;;5146349;27;20042;-70
2022/11/14 12:26:05;;;;;;;30.92;17.75;;;9.10;99.90;;;;;;5143510;27;20049;-70
2022/11/14 12:28:57;;;;;;;28.75;17.70;;;8.90;99.90;;;;;;5109735;27;20047;-70
2022/11/14 12:31:30;;;;;;;29.90;17.35;;;8.90;99.90;;;;;;5145449;27;20050;-70
2022/11/14 12:34:01;;;;;;;26.15;16.38;;;9.60;99.90;;;;;;5145279;27;20043;-70
2022/11/14 12:36:32;;;;;;;29.33;16.67;;;9.00;99.90;;;;;;5126294;27;20109;-70
2022/11/14 12:38:59;;;;;;;27.77;16.23;;;9.00;99.90;;;;;;5141970;27;20126;-71
2022/11/14 12:41:31;;;;;;;24.67;15.70;;;9.10;99.90;;;;;;5145588;27;20041;-70
2022/11/14 12:44:29;;;;;;;25.70;16.75;;;9.00;99.90;;;;;;5143269;27;20041;-70
2022/11/14 12:47:04;;;;;;;27.98;16.63;;;9.30;99.90;;;;;;5088772;27;20543;-70
2022/11/14 12:49:52;;;;;;;24.98;15.55;;;9.70;99.90;;;;;;5109656;27;20050;-70